Time;durP1;ratioP1;P1;durP2;ratioP2;P2;SDS_P1;SDS_P2;PMS_P1;PMS_P2;Temp;Humidity;BMP_temperature;BMP_pressure;BME280_temperature;BME280_humidity;BME280_pressure;Samples;Min_cycle;Max_cycle;Signal;HPM_P1;HPM_P2
2022/08/09 00:01:48;;;;;;;6.72;2.67;;;;;;;22.03;59.75;100947.16;18497020;32;20115;-56
2022/08/09 00:11:59;;;;;;;4.95;2.50;;;;;;;21.94;59.78;100957.28;18494666;32;20435;-56
2022/08/09 00:22:06;;;;;;;6.43;2.37;;;;;;;21.80;59.91;100963.16;18495018;32;20425;-56
2022/08/09 00:32:14;;;;;;;4.35;2.28;;;;;;;21.72;60.28;100966.13;18494684;32;20457;-56
2022/08/09 00:42:29;;;;;;;5.82;2.78;;;;;;;21.55;60.55;100966.78;18493505;32;20197;-56
2022/08/09 00:52:54;;;;;;;4.62;2.47;;;;;;;21.27;61.30;100960.72;18494798;32;20112;-56
2022/08/09 01:03:06;;;;;;;5.05;2.47;;;;;;;21.14;61.72;100976.25;18493787;32;20115;-56
2022/08/09 01:13:15;;;;;;;5.40;2.33;;;;;;;21.04;61.64;100965.13;18492338;32;20092;-56
2022/08/09 01:23:31;;;;;;;5.12;2.20;;;;;;;20.91;61.89;100969.16;18491289;32;20362;-56
2022/08/09 01:33:59;;;;;;;5.25;2.53;;;;;;;20.95;61.72;100962.81;18352834;32;20145;-56
2022/08/09 01:44:04;;;;;;;6.10;2.80;;;;;;;20.68;62.61;100957.56;18364738;32;20093;-56
2022/08/09 01:54:11;;;;;;;5.95;2.65;;;;;;;20.75;62.39;100953.78;18486083;32;20381;-56
2022/08/09 02:04:15;;;;;;;5.37;2.78;;;;;;;20.70;62.44;100944.25;18499511;32;20088;-56
2022/08/09 02:14:20;;;;;;;4.32;2.62;;;;;;;20.69;62.47;100934.56;18466455;32;20084;-56
2022/08/09 02:24:34;;;;;;;5.80;2.65;;;;;;;20.65;62.70;100929.34;18434302;32;20070;-56
2022/08/09 02:34:40;;;;;;;7.62;2.42;;;;;;;20.60;63.18;100933.97;18434366;32;20109;-56
2022/08/09 02:45:02;;;;;;;4.22;2.42;;;;;;;20.43;62.68;100939.84;18434094;32;20461;-56
2022/08/09 02:55:12;;;;;;;5.67;2.80;;;;;;;20.14;63.10;100940.88;18433583;32;20420;-56
2022/08/09 03:05:23;;;;;;;7.15;2.90;;;;;;;19.96;64.02;100930.81;18432975;32;20484;-56
2022/08/09 03:15:29;;;;;;;4.28;2.50;;;;;;;20.02;63.78;100927.12;18433246;32;20638;-56
2022/08/09 03:25:53;;;;;;;5.97;2.80;;;;;;;20.10;63.48;100925.06;18491421;32;20141;-56
2022/08/09 03:36:03;;;;;;;6.75;3.17;;;;;;;20.03;62.81;100923.53;18496450;32;20378;-56
2022/08/09 03:46:17;;;;;;;5.93;3.03;;;;;;;19.94;62.94;100929.16;18496820;32;20084;-56
2022/08/09 03:56:32;;;;;;;5.75;2.60;;;;;;;19.75;63.44;100924.44;18496138;32;20084;-56
2022/08/09 04:06:37;;;;;;;8.23;3.45;;;;;;;19.75;63.85;100916.47;18496365;32;20116;-56
2022/08/09 04:16:47;;;;;;;5.93;3.17;;;;;;;19.78;63.70;100923.47;18494359;32;20133;-56
2022/08/09 04:26:51;;;;;;;6.95;2.75;;;;;;;20.22;63.38;100925.56;18494671;32;20114;-56
2022/08/09 04:36:56;;;;;;;4.80;2.92;;;;;;;20.78;61.61;100932.44;18494477;32;20166;-56
2022/08/09 04:46:59;;;;;;;7.45;2.70;;;;;;;20.95;61.00;100936.28;18493964;32;20115;-56
2022/08/09 04:57:08;;;;;;;7.40;3.20;;;;;;;21.18;61.26;100940.72;18492694;32;20146;-56
2022/08/09 05:07:14;;;;;;;6.85;2.92;;;;;;;21.27;62.47;100951.91;18488016;32;20107;-56
2022/08/09 05:17:23;;;;;;;8.52;3.25;;;;;;;21.81;61.56;100943.62;18490001;32;20088;-56
2022/08/09 05:27:47;;;;;;;8.20;3.60;;;;;;;22.24;61.08;100952.47;18492861;32;20115;-56
2022/08/09 05:37:51;;;;;;;7.10;3.22;;;;;;;22.76;59.08;100956.47;18497766;32;20127;-56
2022/08/09 05:47:55;;;;;;;7.25;2.92;;;;;;;23.18;57.83;100965.25;18495928;32;20100;-56
2022/08/09 05:58:05;;;;;;;6.32;2.78;;;;;;;23.78;56.23;100968.69;18497092;32;20088;-56
2022/08/09 06:08:09;;;;;;;7.18;2.75;;;;;;;24.52;53.63;100970.34;18500670;32;20107;-56
2022/08/09 06:18:14;;;;;;;7.85;3.10;;;;;;;24.98;51.49;100966.22;18498637;32;20136;-56
2022/08/09 06:28:18;;;;;;;6.00;2.83;;;;;;;25.00;50.43;100969.66;18497356;32;20148;-56
2022/08/09 06:38:24;;;;;;;8.65;2.60;;;;;;;25.21;49.85;100972.97;18495261;32;20144;-56
2022/08/09 06:48:40;;;;;;;6.05;2.55;;;;;;;25.10;48.47;100967.38;18496462;32;20089;-56
2022/08/09 06:58:46;;;;;;;6.60;2.95;;;;;;;25.95;46.50;100960.88;18497535;32;20092;-56
2022/08/09 07:09:11;;;;;;;7.95;2.70;;;;;;;26.42;44.94;100965.25;18495486;32;20116;-56
2022/08/09 07:19:35;;;;;;;10.70;2.92;;;;;;;26.87;44.17;100964.34;18481681;32;20096;-56
2022/08/09 07:29:39;;;;;;;4.82;2.55;;;;;;;27.22;43.69;100974.72;18495716;32;20100;-57
2022/08/09 07:39:46;;;;;;;6.37;2.90;;;;;;;27.05;44.13;100972.22;18496778;32;20380;-57
2022/08/09 07:49:49;;;;;;;6.07;2.30;;;;;;;27.41;43.14;100957.41;18492420;32;20101;-56
2022/08/09 08:00:12;;;;;;;5.20;2.35;;;;;;;28.57;41.15;100950.69;18495184;32;20088;-57
2022/08/09 08:10:23;;;;;;;6.78;2.58;;;;;;;29.10;39.87;100958.63;18495969;32;20096;-57
2022/08/09 08:20:31;;;;;;;4.85;2.40;;;;;;;29.66;38.44;100962.66;18495507;32;20123;-55
2022/08/09 08:30:35;;;;;;;5.43;2.47;;;;;;;28.36;38.80;100961.97;18480607;32;20089;-55
2022/08/09 08:40:40;;;;;;;6.68;2.35;;;;;;;28.77;39.28;100958.19;18490361;32;20114;-54
2022/08/09 08:50:46;;;;;;;7.53;2.65;;;;;;;29.73;36.77;100955.87;18493788;32;20135;-55
2022/08/09 09:00:56;;;;;;;5.60;2.50;;;;;;;29.84;36.88;100955.06;18495444;32;20392;-54
2022/08/09 09:11:11;;;;;;;6.30;2.37;;;;;;;29.98;36.35;100945.94;18501131;32;20089;-55
2022/08/09 09:21:21;;;;;;;4.32;2.47;;;;;;;30.63;35.06;100939.22;18500690;32;20104;-56
2022/08/09 09:31:28;;;;;;;6.05;2.30;;;;;;;30.35;34.88;100938.72;18499864;32;20822;-56
2022/08/09 09:41:53;;;;;;;6.12;2.20;;;;;;;31.18;34.15;100938.50;18500839;32;20144;-56
2022/08/09 09:52:04;;;;;;;6.37;2.75;;;;;;;32.12;32.68;100929.88;18499417;32;20111;-56
2022/08/09 10:02:09;;;;;;;4.68;2.22;;;;;;;32.35;32.96;100937.84;18497170;32;20124;-56
2022/08/09 10:12:27;;;;;;;4.00;2.42;;;;;;;32.96;31.23;100933.47;18487785;32;20109;-56
2022/08/09 10:22:36;;;;;;;9.60;2.50;;;;;;;32.91;31.68;100924.87;18498271;32;20096;-56
2022/08/09 10:32:41;;;;;;;4.40;2.22;;;;;;;32.96;30.22;100919.97;18497603;32;20096;-56
2022/08/09 10:42:48;;;;;;;4.95;2.22;;;;;;;33.15;30.25;100907.47;18498653;32;20097;-56
2022/08/09 10:53:04;;;;;;;4.33;2.03;;;;;;;33.62;29.13;100904.13;18493705;32;20143;-56
2022/08/09 11:03:24;;;;;;;4.50;2.10;;;;;;;34.13;28.13;100893.97;18495560;32;20475;-56
2022/08/09 11:14:26;;;;;;;6.45;2.28;;;;;;;32.42;29.69;100886.88;18495712;32;20136;-56
2022/08/09 11:25:07;;;;;;;4.47;2.10;;;;;;;32.52;30.93;100888.59;18441736;32;192470;-56
2022/08/09 11:35:17;;;;;;;6.10;2.70;;;;;;;33.19;29.24;100877.31;18492425;32;20111;-56
2022/08/09 11:45:31;;;;;;;39.47;4.53;;;;;;;33.05;30.37;100881.28;18496049;32;20115;-57
2022/08/09 11:55:45;;;;;;;4.18;2.40;;;;;;;33.55;28.93;100867.81;18494976;32;20087;-56
2022/08/09 12:06:17;;;;;;;4.65;2.25;;;;;;;32.70;29.30;100869.03;18493586;32;20088;-56
2022/08/09 12:16:37;;;;;;;6.12;2.55;;;;;;;32.43;30.55;100865.09;18490444;32;20409;-56
2022/08/09 12:26:48;;;;;;;6.70;2.25;;;;;;;31.85;31.41;100858.38;18489917;32;20104;-57
2022/08/09 12:37:15;;;;;;;;;;;;;;;31.89;31.02;100851.72;18493497;32;20353;-57
2022/08/09 12:47:32;;;;;;;6.18;2.37;;;;;;;32.26;31.21;100842.25;18490821;32;20317;-56
2022/08/09 12:57:52;;;;;;;8.07;2.67;;;;;;;31.79;31.87;100834.59;18490163;32;20140;-56
2022/08/09 13:08:14;;;;;;;3.47;2.17;;;;;;;30.79;33.22;100834.69;18489822;32;20459;-56
2022/08/09 13:18:17;;;;;;;4.43;2.30;;;;;;;31.62;32.00;100831.47;18488406;32;20081;-56
2022/08/09 13:28:22;;;;;;;7.18;2.40;;;;;;;31.44;31.56;100823.09;18488576;32;20186;-56
2022/08/09 13:38:37;;;;;;;5.35;2.40;;;;;;;30.71;32.62;100827.22;18482522;32;20114;-56
2022/08/09 13:49:01;;;;;;;6.75;2.40;;;;;;;31.35;32.89;100819.34;18475336;32;20182;-56
2022/08/09 13:59:07;;;;;;;5.50;2.42;;;;;;;31.20;32.82;100825.97;18497113;32;20154;-56
2022/08/09 14:09:11;;;;;;;6.32;2.45;;;;;;;31.48;31.06;100818.31;18497311;32;20104;-56
2022/08/09 14:19:15;;;;;;;3.55;1.87;;;;;;;32.25;31.01;100818.94;18493223;32;20186;-56
2022/08/09 14:29:23;;;;;;;6.20;2.47;;;;;;;32.35;30.39;100821.69;18495588;32;20101;-56
2022/08/09 14:39:47;;;;;;;6.10;2.47;;;;;;;32.17;30.12;100822.34;18496889;32;20097;-56
2022/08/09 14:49:52;;;;;;;5.50;2.25;;;;;;;31.80;31.13;100814.72;18497479;32;20396;-56
2022/08/09 15:00:05;;;;;;;4.72;2.03;;;;;;;32.04;29.93;100809.06;18497499;32;20088;-56
2022/08/09 15:10:11;;;;;;;6.78;2.15;;;;;;;31.95;29.75;100801.75;18497910;32;20115;-56
2022/08/09 15:20:18;;;;;;;4.60;1.87;;;;;;;32.75;28.57;100793.81;18474507;32;20434;-56
2022/08/09 15:30:42;;;;;;;3.78;1.77;;;;;;;32.63;28.49;100789.50;18459421;32;20115;-56
2022/08/09 15:41:03;;;;;;;4.40;1.92;;;;;;;31.87;29.55;100786.25;18494200;32;20156;-56
2022/08/09 15:51:13;;;;;;;3.80;1.85;;;;;;;31.60;30.74;100784.03;18496597;32;20081;-56
2022/08/09 16:01:36;;;;;;;6.78;2.22;;;;;;;32.01;29.88;100793.09;18477244;32;20127;-56
2022/08/09 16:11:41;;;;;;;4.25;1.87;;;;;;;31.67;30.31;100791.47;18459524;32;20149;-56
2022/08/09 16:21:54;;;;;;;4.70;1.70;;;;;;;30.97;30.97;100789.22;18494295;32;20100;-56
2022/08/09 16:31:59;;;;;;;4.78;2.03;;;;;;;30.89;31.05;100790.81;18494929;32;20111;-56
2022/08/09 16:42:22;;;;;;;3.33;2.00;;;;;;;31.54;30.90;100798.91;18495622;32;20111;-56
2022/08/09 16:52:30;;;;;;;4.20;1.90;;;;;;;31.36;30.47;100801.34;18493608;32;20388;-56
2022/08/09 17:02:33;;;;;;;3.92;1.90;;;;;;;31.29;31.08;100800.97;18494568;32;20108;-56
2022/08/09 17:12:39;;;;;;;4.53;2.15;;;;;;;31.03;31.85;100804.00;18492326;32;20128;-56
2022/08/09 17:22:44;;;;;;;4.25;1.87;;;;;;;30.99;32.60;100807.94;18495432;32;20088;-56
2022/08/09 17:32:56;;;;;;;7.70;3.03;;;;;;;30.79;33.40;100813.13;18473069;32;20145;-56
2022/08/09 17:43:20;;;;;;;5.47;2.30;;;;;;;30.58;33.80;100816.56;18446911;32;20125;-55
2022/08/09 17:53:39;;;;;;;5.90;2.10;;;;;;;30.06;34.74;100816.19;18433341;32;20117;-55
2022/08/09 18:03:50;;;;;;;3.22;1.80;;;;;;;28.00;39.12;100845.41;18450856;32;20112;-55
2022/08/09 18:13:55;;;;;;;4.40;1.70;;;;;;;28.30;36.75;100866.63;18450250;32;20150;-56
2022/08/09 18:24:12;;;;;;;2.60;1.35;;;;;;;28.39;34.17;100876.72;18482505;32;20117;-55
2022/08/09 18:34:18;;;;;;;2.65;1.52;;;;;;;28.85;34.15;100887.87;18493363;32;20120;-56
2022/08/09 18:44:26;;;;;;;3.83;1.70;;;;;;;28.39;32.61;100914.28;18495345;32;20088;-56
2022/08/09 18:54:32;;;;;;;2.15;1.23;;;;;;;27.83;33.09;100962.78;18494720;32;20116;-56
2022/08/09 19:04:36;;;;;;;4.37;1.23;;;;;;;27.20;33.44;100990.00;18448087;32;20685;-55
2022/08/09 19:14:40;;;;;;;1.58;1.12;;;;;;;27.49;31.98;101015.91;18415548;32;20148;-56
2022/08/09 19:24:45;;;;;;;1.35;1.05;;;;;;;27.09;31.37;101030.00;18459649;32;20112;-55
2022/08/09 19:35:10;;;;;;;2.50;1.10;;;;;;;26.83;31.40;101035.12;18482340;32;20109;-56
2022/08/09 19:45:15;;;;;;;2.37;1.05;;;;;;;26.13;32.01;101042.75;18440944;32;20085;-56
2022/08/09 19:55:23;;;;;;;1.83;0.98;;;;;;;25.75;32.28;101060.03;18493401;32;20454;-57
2022/08/09 20:05:46;;;;;;;3.72;0.90;;;;;;;25.71;32.71;101069.16;18491871;32;20095;-55
2022/08/09 20:15:54;;;;;;;2.60;0.93;;;;;;;25.37;33.30;101067.44;18492206;32;20111;-56
2022/08/09 20:26:17;;;;;;;3.33;1.10;;;;;;;24.92;34.49;101065.34;18492610;32;20111;-56
2022/08/09 20:36:24;;;;;;;2.85;1.20;;;;;;;25.16;34.08;101075.69;18492217;32;20127;-56
2022/08/09 20:46:29;;;;;;;1.75;1.10;;;;;;;24.92;34.48;101078.69;18487709;32;20097;-56
2022/08/09 20:56:47;;;;;;;2.50;1.05;;;;;;;25.79;33.90;101078.56;18489402;32;20122;-56
2022/08/09 21:06:55;;;;;;;1.92;1.17;;;;;;;26.30;33.07;101083.75;18493892;32;20122;-56
2022/08/09 21:17:00;;;;;;;2.83;1.45;;;;;;;26.41;33.38;101096.50;18495281;32;20138;-56
2022/08/09 21:27:31;;;;;;;2.87;1.23;;;;;;;26.09;34.71;101105.41;18492218;32;20096;-56
2022/08/09 21:37:56;;;;;;;2.57;1.50;;;;;;;26.04;34.53;101110.16;18492234;32;20115;-56
2022/08/09 21:48:02;;;;;;;1.95;0.80;;;;;;;25.82;35.09;101111.34;18494488;32;20119;-56
2022/08/09 21:58:10;;;;;;;1.83;0.90;;;;;;;25.78;35.54;101115.13;18493295;32;20132;-56
2022/08/09 22:08:15;;;;;;;5.15;1.02;;;;;;;25.74;35.85;101119.78;18489019;32;20115;-56
2022/08/09 22:18:20;;;;;;;2.60;0.88;;;;;;;25.70;35.93;101115.56;18494188;32;20085;-55
2022/08/09 22:28:32;;;;;;;1.67;1.15;;;;;;;25.42;36.09;101109.00;18483291;32;20097;-55
2022/08/09 22:38:37;;;;;;;1.98;1.00;;;;;;;24.91;37.11;101109.88;18492767;32;20092;-55
2022/08/09 22:48:40;;;;;;;1.75;1.23;;;;;;;25.13;37.02;101097.19;18479366;32;20089;-55
2022/08/09 22:58:54;;;;;;;1.87;1.20;;;;;;;25.04;36.14;101096.75;18448418;32;20086;-55
2022/08/09 23:08:59;;;;;;;3.30;1.30;;;;;;;24.71;36.83;101100.19;18430474;32;20339;-55
2022/08/09 23:19:03;;;;;;;1.80;1.00;;;;;;;24.63;36.66;101108.59;18429511;32;20113;-55
2022/08/09 23:29:08;;;;;;;4.32;1.30;;;;;;;24.25;38.01;101100.69;18429461;32;20105;-55
2022/08/09 23:39:13;;;;;;;2.55;1.08;;;;;;;24.44;37.65;101086.44;18430420;32;20116;-55
2022/08/09 23:49:16;;;;;;;2.25;1.10;;;;;;;24.15;37.88;101084.25;18429689;32;20169;-55
